Time;durP1;ratioP1;P1;durP2;ratioP2;P2;SDS_P1;SDS_P2;PMS_P1;PMS_P2;Temp;Humidity;BMP_temperature;BMP_pressure;BME280_temperature;BME280_humidity;BME280_pressure;Samples;Min_cycle;Max_cycle;Signal;HPM_P1;HPM_P2
2021/04/09 00:00:53;;;;;;;14.43;9.87;;;;;;;4.34;49.01;98338.78;8270053;28;20243;-72
2021/04/09 00:04:55;;;;;;;11.73;9.53;;;;;;;4.08;49.58;98334.00;8269666;28;20261;-66
2021/04/09 00:08:58;;;;;;;14.60;9.17;;;;;;;4.25;49.09;98332.06;8269962;28;20201;-68
2021/04/09 00:13:01;;;;;;;14.10;8.57;;;;;;;4.20;49.05;98323.56;8270343;28;20676;-66
2021/04/09 00:17:04;;;;;;;14.40;9.37;;;;;;;4.20;48.81;98327.84;8270650;28;20237;-68
2021/04/09 00:21:07;;;;;;;14.40;9.63;;;;;;;4.28;48.71;98323.47;8269703;28;20209;-66
2021/04/09 00:25:10;;;;;;;14.23;9.07;;;;;;;4.49;48.47;98324.88;8269464;28;20232;-66
2021/04/09 00:29:13;;;;;;;16.00;9.30;;;;;;;4.43;48.51;98322.41;8269698;28;20326;-66
2021/04/09 00:33:16;;;;;;;13.73;9.20;;;;;;;4.24;48.92;98314.13;8269065;28;20205;-67
2021/04/09 00:37:17;;;;;;;11.00;8.50;;;;;;;3.90;50.12;98312.84;8269531;28;20209;-66
2021/04/09 00:41:19;;;;;;;11.77;9.20;;;;;;;3.96;49.89;98308.50;8268825;28;20206;-66
2021/04/09 00:45:21;;;;;;;13.93;9.13;;;;;;;3.99;49.36;98299.06;8268283;28;20234;-66
2021/04/09 00:49:24;;;;;;;15.33;9.07;;;;;;;3.71;50.45;98289.16;8268976;28;20502;-67
2021/04/09 00:53:27;;;;;;;12.63;9.07;;;;;;;3.81;50.07;98291.59;8268859;28;20216;-66
2021/04/09 00:57:29;;;;;;;14.10;8.87;;;;;;;3.79;50.05;98291.63;8236506;28;20203;-66
2021/04/09 01:01:31;;;;;;;14.37;9.17;;;;;;;3.55;50.56;98284.22;8236086;28;20213;-66
2021/04/09 01:05:34;;;;;;;14.50;8.97;;;;;;;3.29;51.23;98283.66;8234843;28;20233;-66
2021/04/09 01:09:36;;;;;;;16.10;9.87;;;;;;;3.31;51.44;98273.34;8236414;28;20209;-67
2021/04/09 01:13:38;;;;;;;14.50;8.83;;;;;;;3.36;51.56;98275.88;8235934;28;20202;-68
2021/04/09 01:17:44;;;;;;;13.37;9.00;;;;;;;3.26;51.48;98273.41;8235830;28;20246;-66
2021/04/09 01:21:49;;;;;;;15.07;8.53;;;;;;;3.42;51.03;98271.53;8235635;28;20210;-67
2021/04/09 01:26:15;;;;;;;13.83;8.20;;;;;;;3.59;50.82;98266.22;8235396;28;20230;-67
2021/04/09 01:30:55;;;;;;;13.67;8.80;;;;;;;3.30;51.36;98262.28;8232745;28;20290;-66
2021/04/09 01:34:59;;;;;;;12.87;8.90;;;;;;;3.20;51.38;98255.56;8235109;28;20222;-66
2021/04/09 01:39:05;;;;;;;14.00;9.30;;;;;;;2.99;52.06;98251.50;8234781;28;20210;-65
2021/04/09 01:43:10;;;;;;;14.27;8.97;;;;;;;3.33;51.07;98248.59;8234702;28;20265;-66
2021/04/09 01:47:13;;;;;;;16.70;9.40;;;;;;;3.22;51.47;98247.84;8235759;28;20206;-68
2021/04/09 01:51:16;;;;;;;13.87;9.13;;;;;;;3.11;51.83;98242.88;8257523;28;20202;-69
2021/04/09 01:55:19;;;;;;;11.83;8.43;;;;;;;2.84;52.42;98239.72;8260517;28;20242;-67
2021/04/09 01:59:21;;;;;;;16.63;9.40;;;;;;;3.05;52.00;98238.66;8266897;28;20206;-66
2021/04/09 02:03:24;;;;;;;13.67;9.13;;;;;;;3.25;51.12;98229.91;8265983;28;20312;-66
2021/04/09 02:07:27;;;;;;;11.83;8.10;;;;;;;3.50;50.58;98230.47;8265826;28;20209;-66
2021/04/09 02:11:29;;;;;;;12.43;9.20;;;;;;;3.53;50.13;98222.78;8265998;28;20426;-66
2021/04/09 02:15:32;;;;;;;11.97;8.70;;;;;;;3.43;50.70;98221.19;8265933;28;20300;-73
2021/04/09 02:19:33;;;;;;;13.37;8.87;;;;;;;3.49;50.15;98221.13;8265625;28;20209;-74
2021/04/09 02:23:36;;;;;;;12.03;8.00;;;;;;;3.26;50.63;98209.44;8265229;28;20226;-74
2021/04/09 02:27:39;;;;;;;11.10;7.77;;;;;;;3.18;50.85;98207.81;8265271;28;20237;-74
2021/04/09 02:31:41;;;;;;;12.87;8.13;;;;;;;3.29;50.38;98199.16;8265015;28;20202;-74
2021/04/09 02:35:43;;;;;;;11.60;8.07;;;;;;;3.31;50.46;98209.38;8265169;28;20251;-73
2021/04/09 02:39:46;;;;;;;11.57;8.13;;;;;;;3.11;50.98;98210.44;8264646;28;20206;-74
2021/04/09 02:43:48;;;;;;;9.60;7.73;;;;;;;3.15;51.31;98198.47;8264841;28;20300;-74
2021/04/09 02:47:52;;;;;;;13.87;8.80;;;;;;;3.20;50.82;98189.03;8264262;28;20202;-74
2021/04/09 02:51:56;;;;;;;13.70;8.23;;;;;;;3.02;51.14;98190.06;8264517;28;20637;-74
2021/04/09 02:56:03;;;;;;;13.83;7.93;;;;;;;3.49;49.95;98188.66;8266673;28;20687;-74
2021/04/09 03:00:09;;;;;;;13.37;8.03;;;;;;;3.30;50.27;98188.03;8264192;28;20209;-74
2021/04/09 03:04:11;;;;;;;12.30;7.77;;;;;;;3.22;50.99;98189.84;8264356;28;20236;-74
2021/04/09 03:08:13;;;;;;;10.40;7.73;;;;;;;3.11;51.20;98178.88;8264805;28;20560;-74
2021/04/09 03:12:17;;;;;;;12.10;7.30;;;;;;;2.82;52.30;98169.81;8263958;28;20213;-74
2021/04/09 03:16:21;;;;;;;10.53;7.70;;;;;;;3.30;50.97;98166.72;8263757;28;20233;-74
2021/04/09 03:20:24;;;;;;;11.03;7.70;;;;;;;3.08;51.46;98171.22;8264109;28;20529;-74
2021/04/09 03:24:26;;;;;;;11.03;7.73;;;;;;;3.37;50.74;98170.91;8263899;28;20240;-74
2021/04/09 03:28:29;;;;;;;11.73;7.97;;;;;;;2.72;52.88;98161.38;8263356;28;20202;-74
2021/04/09 03:32:30;;;;;;;8.63;7.13;;;;;;;3.00;51.92;98161.09;8263740;28;20515;-73
2021/04/09 03:36:32;;;;;;;9.57;7.67;;;;;;;2.40;53.73;98150.59;8263794;28;20210;-74
2021/04/09 03:40:34;;;;;;;12.90;8.27;;;;;;;2.42;53.61;98156.53;8263156;28;20201;-74
2021/04/09 03:44:37;;;;;;;10.03;7.27;;;;;;;2.57;53.59;98158.97;8263365;28;20229;-74
2021/04/09 03:48:39;;;;;;;10.00;7.70;;;;;;;2.74;53.35;98153.66;8263723;28;20289;-74
2021/04/09 03:52:41;;;;;;;12.13;7.60;;;;;;;2.71;53.30;98152.00;8263405;28;20206;-74
2021/04/09 03:56:43;;;;;;;12.40;7.83;;;;;;;2.71;53.67;98153.72;8263181;28;20201;-73
2021/04/09 04:00:45;;;;;;;13.13;8.10;;;;;;;2.91;52.75;98156.06;8263347;28;20201;-74
2021/04/09 04:04:47;;;;;;;12.10;8.00;;;;;;;2.84;52.75;98142.50;8262805;28;20221;-74
2021/04/09 04:08:50;;;;;;;10.03;7.50;;;;;;;2.85;53.44;98141.63;8262994;28;20628;-74
2021/04/09 04:12:52;;;;;;;8.97;7.57;;;;;;;2.98;52.66;98151.75;8262728;28;20210;-74
2021/04/09 04:16:55;;;;;;;10.57;8.40;;;;;;;2.79;53.15;98156.19;8262582;28;20248;-73
2021/04/09 04:20:59;;;;;;;11.83;7.97;;;;;;;2.89;53.15;98142.44;8262914;28;20210;-74
2021/04/09 04:25:01;;;;;;;13.50;8.20;;;;;;;2.99;52.73;98144.06;8263958;28;20230;-74
2021/04/09 04:29:03;;;;;;;10.13;8.37;;;;;;;2.94;52.84;98141.53;8263245;28;20202;-74
2021/04/09 04:33:06;;;;;;;14.37;10.30;;;;;;;2.76;53.41;98134.06;8262871;28;20201;-74
2021/04/09 04:37:08;;;;;;;11.07;8.77;;;;;;;2.67;53.82;98131.59;8262846;28;20209;-74
2021/04/09 04:41:10;;;;;;;11.63;8.67;;;;;;;2.63;54.14;98123.13;8263522;28;20213;-74
2021/04/09 04:45:12;;;;;;;13.77;9.00;;;;;;;2.41;54.66;98125.00;8268591;28;20240;-73
2021/04/09 04:49:14;;;;;;;14.27;9.00;;;;;;;2.28;54.82;98125.97;8268066;28;20213;-74
2021/04/09 04:53:16;;;;;;;12.87;9.20;;;;;;;2.51;54.61;98126.66;8268494;28;20229;-74
2021/04/09 04:57:18;;;;;;;15.97;9.20;;;;;;;2.44;54.96;98130.09;8267819;28;20205;-74
2021/04/09 05:01:20;;;;;;;10.50;8.70;;;;;;;2.43;54.72;98127.56;8268195;28;20218;-74
2021/04/09 05:05:23;;;;;;;11.83;8.53;;;;;;;2.70;54.07;98139.22;8267169;28;20265;-74
2021/04/09 05:09:25;;;;;;;12.47;8.53;;;;;;;2.87;53.55;98145.00;8265368;28;20205;-74
2021/04/09 05:13:27;;;;;;;12.97;9.20;;;;;;;2.86;54.20;98130.53;8265584;28;20209;-74
2021/04/09 05:17:29;;;;;;;14.43;8.90;;;;;;;3.28;52.86;98140.31;8266012;28;20707;-74
2021/04/09 05:21:31;;;;;;;13.87;9.47;;;;;;;3.12;53.38;98137.94;8265138;28;20201;-74
2021/04/09 05:25:33;;;;;;;14.80;9.60;;;;;;;3.09;53.41;98132.00;8264940;28;20230;-74
2021/04/09 05:29:37;;;;;;;10.73;8.60;;;;;;;3.18;53.40;98139.56;8265332;28;20217;-74
2021/04/09 05:33:39;;;;;;;12.77;9.50;;;;;;;3.18;53.46;98125.91;8265561;28;20202;-73
2021/04/09 05:37:42;;;;;;;12.83;9.53;;;;;;;3.10;54.27;98120.88;8266294;28;20602;-74
2021/04/09 05:41:44;;;;;;;14.47;9.07;;;;;;;3.36;53.51;98125.69;8267197;28;20218;-74
2021/04/09 05:45:46;;;;;;;11.30;9.23;;;;;;;3.31;53.73;98117.22;8267113;28;20238;-74
2021/04/09 05:49:48;;;;;;;13.27;9.43;;;;;;;3.25;53.95;98122.41;8267379;28;20206;-74
2021/04/09 05:53:50;;;;;;;12.00;9.90;;;;;;;3.25;54.30;98114.72;8266092;28;20224;-74
2021/04/09 05:57:53;;;;;;;13.60;9.63;;;;;;;3.30;54.18;98118.94;8266966;28;20202;-73
2021/04/09 06:01:55;;;;;;;11.80;10.27;;;;;;;3.35;54.44;98116.31;8268246;28;20285;-74
2021/04/09 06:05:58;;;;;;;12.77;9.67;;;;;;;3.27;54.56;98115.56;8267253;28;20641;-74
2021/04/09 06:10:00;;;;;;;16.17;10.10;;;;;;;3.41;54.50;98112.81;8235820;28;20231;-74
2021/04/09 06:14:02;;;;;;;13.50;10.07;;;;;;;3.63;54.23;98103.97;8235272;28;20203;-73
2021/04/09 06:18:05;;;;;;;11.77;9.90;;;;;;;3.94;53.36;98110.34;8234749;28;20242;-73
2021/04/09 06:22:07;;;;;;;14.30;10.60;;;;;;;4.05;52.67;98109.31;8234339;28;20206;-74
2021/04/09 06:26:10;;;;;;;14.30;10.63;;;;;;;4.35;51.39;98109.69;8242182;28;20229;-73
2021/04/09 06:30:13;;;;;;;12.73;9.90;;;;;;;4.74;50.60;98112.44;8265746;28;20260;-73
2021/04/09 06:34:15;;;;;;;12.57;9.00;;;;;;;5.03;50.27;98108.47;8262721;28;20247;-73
2021/04/09 06:38:17;;;;;;;11.73;9.00;;;;;;;5.35;48.90;98105.25;8263297;28;20214;-73
2021/04/09 06:42:20;;;;;;;11.67;9.33;;;;;;;5.56;48.92;98101.38;8264046;28;20657;-73
2021/04/09 06:46:22;;;;;;;10.17;8.50;;;;;;;5.61;48.67;98102.09;8263742;28;20225;-73
2021/04/09 06:50:24;;;;;;;10.63;8.93;;;;;;;6.01;47.27;98092.66;8264912;28;20205;-73
2021/04/09 06:54:26;;;;;;;13.20;8.47;;;;;;;6.28;46.86;98085.97;8265071;28;20221;-73
2021/04/09 06:58:31;;;;;;;12.37;8.37;;;;;;;6.05;47.01;98089.13;8265064;28;20837;-72
2021/04/09 07:02:33;;;;;;;13.93;8.87;;;;;;;5.83;47.88;98086.19;8264789;28;20205;-73
2021/04/09 07:06:44;;;;;;;12.93;8.60;;;;;;;6.67;45.69;98090.16;8263885;28;20222;-74
2021/04/09 07:10:47;;;;;;;11.47;8.90;;;;;;;6.83;45.91;98079.41;8264613;28;20206;-73
2021/04/09 07:14:51;;;;;;;13.03;8.87;;;;;;;7.34;44.65;98077.13;8264491;28;20532;-73
2021/04/09 07:18:55;;;;;;;11.13;8.07;;;;;;;7.80;43.33;98066.22;8264590;28;20198;-73
2021/04/09 07:22:58;;;;;;;10.90;8.00;;;;;;;7.70;43.15;98071.75;8264061;28;20213;-73
2021/04/09 07:27:00;;;;;;;13.00;8.17;;;;;;;8.35;41.87;98058.44;8263072;28;20218;-73
2021/04/09 07:31:03;;;;;;;11.10;8.50;;;;;;;8.20;42.08;98046.03;8264439;28;20288;-73
2021/04/09 07:35:12;;;;;;;12.60;8.43;;;;;;;8.68;41.06;98047.88;8265158;28;20665;-73
2021/04/09 07:39:14;;;;;;;11.63;8.37;;;;;;;9.24;39.69;98048.44;8263922;28;20217;-73
2021/04/09 07:43:17;;;;;;;13.30;8.57;;;;;;;10.20;38.17;98058.47;8263898;28;20207;-73
2021/04/09 07:47:20;;;;;;;13.63;8.33;;;;;;;10.29;37.17;98050.31;8264149;28;20321;-73
2021/04/09 07:51:22;;;;;;;11.23;7.57;;;;;;;10.04;37.40;98048.75;8264633;28;20319;-73
2021/04/09 07:55:28;;;;;;;9.90;6.80;;;;;;;10.82;36.67;98054.97;8264412;28;20206;-73
2021/04/09 07:59:36;;;;;;;11.43;7.40;;;;;;;11.02;35.33;98061.03;8264255;28;20204;-73
2021/04/09 08:03:40;;;;;;;12.43;7.00;;;;;;;11.33;35.86;98052.72;8264074;28;20245;-73
2021/04/09 08:07:42;;;;;;;9.37;7.23;;;;;;;11.88;34.21;98052.72;8263230;28;20677;-73
2021/04/09 08:11:44;;;;;;;12.67;7.20;;;;;;;12.43;33.46;98050.91;8263481;28;20212;-73
2021/04/09 08:15:46;;;;;;;11.37;6.80;;;;;;;12.22;33.87;98043.31;8266094;28;20659;-73
2021/04/09 08:19:54;;;;;;;7.47;6.57;;;;;;;12.79;32.77;98048.19;8269444;28;20202;-73
2021/04/09 08:23:57;;;;;;;8.40;6.37;;;;;;;12.80;33.18;98046.44;8268743;28;20209;-73
2021/04/09 08:27:59;;;;;;;8.50;6.30;;;;;;;12.27;32.92;98041.31;8269367;28;20210;-73
2021/04/09 08:32:03;;;;;;;10.37;6.30;;;;;;;13.16;32.29;98035.03;8260795;28;20210;-73
2021/04/09 08:36:07;;;;;;;10.07;5.83;;;;;;;14.01;31.58;98028.59;8269220;28;20455;-74
2021/04/09 08:40:09;;;;;;;7.00;6.13;;;;;;;14.11;30.41;98026.31;8268894;28;20590;-73
2021/04/09 08:44:13;;;;;;;7.60;6.07;;;;;;;14.34;30.42;98028.44;8269607;28;20209;-73
2021/04/09 08:48:16;;;;;;;7.57;5.83;;;;;;;14.89;29.29;98021.72;8269917;28;20264;-73
2021/04/09 08:52:19;;;;;;;8.00;5.97;;;;;;;14.79;28.52;98024.06;8269314;28;20621;-73
2021/04/09 08:56:36;;;;;;;7.60;6.20;;;;;;;14.70;28.90;98022.00;8268864;28;20233;-73
2021/04/09 09:00:38;;;;;;;11.77;5.83;;;;;;;15.19;29.81;98005.94;8269115;28;20213;-73
2021/04/09 09:04:40;;;;;;;10.30;5.80;;;;;;;15.08;28.74;98005.78;8268712;28;20225;-73
2021/04/09 09:09:00;;;;;;;7.40;5.50;;;;;;;15.21;28.48;97992.78;8268093;28;20202;-73
2021/04/09 09:13:29;;;;;;;8.00;5.30;;;;;;;15.94;26.56;98000.31;8267890;28;20206;-73
2021/04/09 09:17:38;;;;;;;8.30;5.27;;;;;;;15.97;25.94;97999.28;8267699;28;20352;-73
2021/04/09 09:21:40;;;;;;;8.67;4.90;;;;;;;16.18;27.54;97992.66;8268162;28;20205;-73
2021/04/09 09:25:43;;;;;;;6.13;5.10;;;;;;;16.22;26.06;97980.19;8267768;28;20229;-73
2021/04/09 09:29:46;;;;;;;9.17;5.70;;;;;;;16.76;26.51;97982.59;8267569;28;20289;-73
2021/04/09 09:33:48;;;;;;;9.50;4.67;;;;;;;17.16;26.41;97986.84;8267676;28;20621;-73
2021/04/09 09:37:50;;;;;;;5.50;4.70;;;;;;;16.99;24.46;97964.50;8267150;28;20206;-73
2021/04/09 09:41:53;;;;;;;6.10;4.80;;;;;;;16.98;24.81;97966.28;8267022;28;20248;-73
2021/04/09 09:45:55;;;;;;;7.10;4.80;;;;;;;16.95;23.71;97966.50;8253421;28;20226;-73
2021/04/09 09:50:26;;;;;;;8.90;4.90;;;;;;;16.67;23.20;97958.88;8234129;28;20210;-73
2021/04/09 09:54:30;;;;;;;6.30;4.90;;;;;;;16.60;24.65;97955.84;8219439;28;20205;-73
2021/04/09 09:58:33;;;;;;;5.90;4.83;;;;;;;16.66;24.67;97944.13;8266575;28;20239;-73
2021/04/09 10:02:35;;;;;;;6.00;5.00;;;;;;;17.08;24.22;97947.31;8251822;28;20278;-73
2021/04/09 10:06:37;;;;;;;9.00;5.17;;;;;;;17.54;23.49;97938.75;8237324;28;20280;-73
2021/04/09 10:10:45;;;;;;;8.90;5.00;;;;;;;17.28;23.91;97930.19;8233881;28;20288;-73
2021/04/09 10:14:47;;;;;;;7.77;4.90;;;;;;;17.39;23.39;97920.59;8233907;28;20237;-73
2021/04/09 10:18:52;;;;;;;8.83;5.83;;;;;;;16.66;24.68;97912.75;8234252;28;20206;-73
2021/04/09 10:22:54;;;;;;;9.07;5.03;;;;;;;16.73;24.46;97914.81;8233813;28;20222;-73
2021/04/09 10:26:58;;;;;;;9.17;6.00;;;;;;;16.93;23.61;97912.63;8236676;28;20217;-73
2021/04/09 10:31:12;;;;;;;7.63;5.07;;;;;;;17.16;22.95;97903.94;8264967;28;20212;-73
2021/04/09 10:35:21;;;;;;;6.97;5.40;;;;;;;17.19;23.12;97901.13;8262703;28;20232;-73
2021/04/09 10:39:23;;;;;;;7.90;5.50;;;;;;;17.72;22.36;97895.50;8264470;28;20212;-73
2021/04/09 10:43:33;;;;;;;9.77;4.97;;;;;;;17.79;22.02;97890.63;8264802;28;20202;-73
2021/04/09 10:47:36;;;;;;;7.47;5.13;;;;;;;17.78;22.58;97894.19;8261461;28;20221;-73
2021/04/09 10:51:39;;;;;;;12.87;5.23;;;;;;;17.78;27.70;97895.06;8264498;28;20237;-69
2021/04/09 10:55:44;;;;;;;16.13;4.57;;;;;;;18.81;29.86;97891.59;8263940;28;20249;-69
2021/04/09 10:59:48;;;;;;;9.70;4.80;;;;;;;18.51;26.72;97872.03;8263865;28;20212;-69
2021/04/09 11:03:51;;;;;;;6.47;5.10;;;;;;;17.11;22.97;97858.13;8264234;28;20213;-69
2021/04/09 11:07:53;;;;;;;7.40;5.20;;;;;;;17.98;23.37;97856.88;8264140;28;20222;-69
2021/04/09 11:12:20;;;;;;;7.53;5.00;;;;;;;18.48;22.05;97855.72;8263094;28;20206;-72
2021/04/09 11:16:22;;;;;;;6.80;4.90;;;;;;;18.61;21.19;97852.97;8262599;28;20252;-71
2021/04/09 11:20:27;;;;;;;7.37;4.50;;;;;;;18.98;21.44;97831.69;8263502;28;20193;-71
2021/04/09 11:24:32;;;;;;;7.70;5.20;;;;;;;19.01;21.03;97826.19;8263676;28;20228;-72
2021/04/09 11:28:36;;;;;;;7.93;5.03;;;;;;;18.56;21.12;97827.09;8263118;28;20213;-72
2021/04/09 11:32:40;;;;;;;10.80;4.90;;;;;;;18.74;20.56;97816.94;8262359;28;20217;-72
2021/04/09 11:36:46;;;;;;;7.00;4.77;;;;;;;19.07;21.20;97802.91;8263136;28;20261;-72
2021/04/09 11:40:48;;;;;;;6.87;4.73;;;;;;;19.11;20.67;97803.47;8263863;28;20208;-72
2021/04/09 11:44:50;;;;;;;6.07;4.47;;;;;;;19.20;21.20;97797.47;8264143;28;20234;-72
2021/04/09 11:49:00;;;;;;;8.53;4.17;;;;;;;19.24;21.53;97780.50;8264575;28;20320;-72
2021/04/09 11:53:05;;;;;;;5.90;4.47;;;;;;;19.68;22.02;97775.13;8273393;28;20551;-72
2021/04/09 11:57:20;;;;;;;7.60;4.30;;;;;;;20.03;22.20;97766.91;8274893;28;20281;-72
2021/04/09 12:01:27;;;;;;;7.30;4.10;;;;;;;19.77;21.58;97768.31;8271317;28;20783;-73
2021/04/09 12:05:34;;;;;;;6.97;4.80;;;;;;;19.50;21.59;97764.41;8270877;28;20260;-73
2021/04/09 12:09:36;;;;;;;7.20;4.53;;;;;;;19.21;21.35;97772.91;8272828;28;20221;-72
2021/04/09 12:13:43;;;;;;;9.10;4.60;;;;;;;18.80;21.59;97771.03;8272881;28;20293;-72
2021/04/09 12:17:45;;;;;;;8.20;4.37;;;;;;;19.03;21.83;97756.88;8270649;28;20237;-72
2021/04/09 12:21:47;;;;;;;8.90;4.17;;;;;;;19.29;21.21;97752.09;8270432;28;20503;-73
2021/04/09 12:25:50;;;;;;;12.53;4.30;;;;;;;19.78;22.14;97748.94;8270775;28;20221;-72
2021/04/09 12:29:52;;;;;;;7.90;4.13;;;;;;;19.81;20.34;97757.38;8271089;28;20599;-69
2021/04/09 12:33:54;;;;;;;12.17;4.27;;;;;;;20.00;21.40;97748.75;8270611;28;20292;-68
2021/04/09 12:37:56;;;;;;;9.57;3.70;;;;;;;19.49;21.15;97747.78;8258531;28;20220;-68
2021/04/09 12:42:01;;;;;;;10.37;3.43;;;;;;;19.45;20.27;97735.06;8256013;28;20198;-68
2021/04/09 12:46:03;;;;;;;8.83;3.30;;;;;;;18.81;22.87;97726.34;8255385;28;20218;-68
2021/04/09 12:50:06;;;;;;;8.50;3.23;;;;;;;17.96;21.15;97726.97;8255635;28;20213;-68
2021/04/09 12:54:08;;;;;;;6.00;2.90;;;;;;;17.89;22.54;97715.31;8246502;28;20190;-68
2021/04/09 12:58:11;;;;;;;5.80;3.00;;;;;;;17.86;20.92;97713.75;8273710;28;20242;-71
2021/04/09 13:02:12;;;;;;;5.37;3.10;;;;;;;17.82;20.95;97711.47;8268884;28;20704;-72
2021/04/09 13:06:14;;;;;;;4.63;2.93;;;;;;;17.98;21.23;97709.34;8266976;28;20669;-72
2021/04/09 13:10:16;;;;;;;5.20;3.00;;;;;;;18.11;21.88;97683.84;8267684;28;20198;-72
2021/04/09 13:14:19;;;;;;;3.57;2.43;;;;;;;18.01;21.51;97693.41;8267605;28;20202;-72
2021/04/09 13:18:21;;;;;;;3.67;2.60;;;;;;;17.78;20.60;97696.00;8267134;28;20240;-72
2021/04/09 13:22:23;;;;;;;6.77;3.10;;;;;;;17.77;21.21;97694.31;8267965;28;20221;-72
2021/04/09 13:26:25;;;;;;;7.20;2.93;;;;;;;17.96;20.85;97690.28;8267221;28;20229;-72
2021/04/09 13:30:27;;;;;;;6.70;3.03;;;;;;;18.30;20.32;97688.44;8267532;28;20206;-72
2021/04/09 13:34:29;;;;;;;5.83;3.07;;;;;;;18.32;20.78;97681.28;8267290;28;20220;-72
2021/04/09 13:38:31;;;;;;;7.00;3.30;;;;;;;18.49;20.88;97682.53;8266946;28;20201;-72
2021/04/09 13:42:33;;;;;;;7.93;2.90;;;;;;;18.31;20.86;97676.97;8266564;28;20309;-71
2021/04/09 13:46:36;;;;;;;4.97;3.20;;;;;;;18.70;20.24;97671.28;8267492;28;20718;-72
2021/04/09 13:50:38;;;;;;;8.03;3.27;;;;;;;18.54;20.01;97667.28;8267020;28;20566;-72
2021/04/09 13:54:40;;;;;;;5.53;3.03;;;;;;;18.75;19.72;97659.44;8266211;28;20300;-72
2021/04/09 13:58:43;;;;;;;7.63;3.00;;;;;;;18.60;20.13;97659.84;8266374;28;20209;-71
2021/04/09 14:02:46;;;;;;;5.67;3.00;;;;;;;18.62;20.16;97657.94;8266238;28;20202;-72
2021/04/09 14:06:48;;;;;;;4.17;2.60;;;;;;;18.61;20.37;97661.53;8265570;28;20229;-72
2021/04/09 14:10:49;;;;;;;3.23;2.67;;;;;;;18.31;20.24;97655.19;8265748;28;20197;-72
2021/04/09 14:14:53;;;;;;;5.00;2.90;;;;;;;18.61;20.78;97651.88;8265525;28;20316;-73
2021/04/09 14:18:55;;;;;;;4.37;2.93;;;;;;;17.94;20.35;97651.13;8265575;28;20201;-71
2021/04/09 14:22:57;;;;;;;5.73;3.00;;;;;;;18.08;20.09;97650.00;8265817;28;20206;-71
2021/04/09 14:26:59;;;;;;;8.50;3.30;;;;;;;18.27;20.17;97651.97;8265098;28;20222;-72
2021/04/09 14:31:01;;;;;;;4.90;2.80;;;;;;;18.25;19.82;97653.06;8266810;28;20243;-71
2021/04/09 14:35:05;;;;;;;4.43;2.97;;;;;;;18.02;20.22;97652.31;8265055;28;20668;-71
2021/04/09 14:39:07;;;;;;;5.17;3.13;;;;;;;18.12;20.35;97645.34;8264676;28;20202;-71
2021/04/09 14:43:08;;;;;;;5.80;3.17;;;;;;;18.15;19.88;97640.72;8265400;28;20573;-71
2021/04/09 14:47:11;;;;;;;7.57;3.13;;;;;;;18.10;19.74;97640.22;8264406;28;20225;-71
2021/04/09 14:51:13;;;;;;;10.53;2.97;;;;;;;17.96;21.02;97645.75;8265335;28;20217;-71
2021/04/09 14:55:15;;;;;;;6.03;3.33;;;;;;;17.57;20.20;97655.75;8263893;28;20308;-70
2021/04/09 14:59:17;;;;;;;5.63;3.17;;;;;;;17.47;20.20;97644.34;8264083;28;20210;-70
2021/04/09 15:03:19;;;;;;;5.27;3.50;;;;;;;17.29;19.96;97644.81;8263739;28;20201;-70
2021/04/09 15:07:22;;;;;;;7.50;3.20;;;;;;;17.39;20.44;97647.56;8263747;28;20232;-70
2021/04/09 15:11:24;;;;;;;6.73;5.50;;;;;;;17.53;20.67;97643.84;8264720;28;20293;-71
2021/04/09 15:15:26;;;;;;;7.03;6.03;;;;;;;17.43;20.40;97653.38;8264122;28;20749;-70
2021/04/09 15:19:28;;;;;;;8.63;6.87;;;;;;;17.30;20.99;97654.31;8264636;28;20209;-71
2021/04/09 15:23:31;;;;;;;6.13;4.87;;;;;;;17.36;21.26;97655.63;8264297;28;20209;-71
2021/04/09 15:27:33;;;;;;;5.77;4.60;;;;;;;17.05;22.02;97650.13;8263414;28;20229;-71
2021/04/09 15:31:35;;;;;;;7.00;6.30;;;;;;;17.01;22.41;97646.09;8263985;28;20220;-70
2021/04/09 15:35:37;;;;;;;7.63;3.80;;;;;;;16.83;22.33;97650.94;8263894;28;20210;-70
2021/04/09 15:39:40;;;;;;;7.03;3.83;;;;;;;16.75;23.05;97658.47;8263643;28;20553;-71
2021/04/09 15:43:42;;;;;;;5.73;3.77;;;;;;;16.48;22.44;97656.94;8263822;28;20201;-71
2021/04/09 15:47:44;;;;;;;6.20;4.30;;;;;;;16.48;22.74;97658.72;8263212;28;20599;-72
2021/04/09 15:51:46;;;;;;;7.43;3.60;;;;;;;16.53;22.96;97654.84;8263088;28;20205;-72
2021/04/09 15:55:49;;;;;;;6.10;3.23;;;;;;;16.56;22.85;97653.75;8262902;28;20613;-72
2021/04/09 15:59:51;;;;;;;8.33;3.67;;;;;;;16.56;23.27;97654.63;8263270;28;20202;-72
2021/04/09 16:03:54;;;;;;;7.17;3.60;;;;;;;16.48;23.29;97646.47;8263772;28;20197;-71
2021/04/09 16:07:57;;;;;;;4.83;3.33;;;;;;;16.51;23.84;97648.06;8262235;28;20229;-71
2021/04/09 16:12:00;;;;;;;6.97;3.97;;;;;;;16.45;23.55;97649.34;8262243;28;20224;-69
2021/04/09 16:16:01;;;;;;;6.13;3.00;;;;;;;16.39;23.56;97644.53;8262852;28;20241;-70
2021/04/09 16:20:05;;;;;;;6.17;3.63;;;;;;;16.36;23.85;97642.16;8262280;28;20214;-71
2021/04/09 16:24:08;;;;;;;6.53;3.20;;;;;;;16.39;24.27;97636.69;8262781;28;20210;-70
2021/04/09 16:28:11;;;;;;;7.17;3.23;;;;;;;16.27;23.97;97638.44;8263020;28;20320;-69
2021/04/09 16:32:13;;;;;;;5.67;3.37;;;;;;;16.26;23.67;97641.16;8255592;28;20206;-69
2021/04/09 16:36:14;;;;;;;5.23;3.27;;;;;;;16.25;23.92;97636.88;8259364;28;20202;-69
2021/04/09 16:40:17;;;;;;;5.23;2.90;;;;;;;16.16;24.07;97633.16;8267570;28;20209;-69
2021/04/09 16:44:20;;;;;;;6.40;2.90;;;;;;;16.07;24.10;97641.66;8267796;28;20657;-70
2021/04/09 16:48:21;;;;;;;6.90;3.27;;;;;;;16.04;24.59;97640.09;8267321;28;20232;-69
2021/04/09 16:52:24;;;;;;;7.40;2.90;;;;;;;16.00;24.55;97639.47;8264372;28;20205;-69
2021/04/09 16:56:25;;;;;;;5.63;2.83;;;;;;;15.87;24.57;97637.88;8264112;28;20764;-69
2021/04/09 17:00:29;;;;;;;7.07;2.90;;;;;;;15.94;24.81;97639.94;8252428;28;20202;-69
2021/04/09 17:04:31;;;;;;;9.10;3.10;;;;;;;15.91;24.89;97636.69;8253387;28;20206;-69
2021/04/09 17:08:34;;;;;;;6.00;2.93;;;;;;;15.81;24.77;97633.91;8251898;28;20223;-70
2021/04/09 17:12:36;;;;;;;5.90;2.70;;;;;;;15.74;24.68;97635.28;8255140;28;20592;-69
2021/04/09 17:16:39;;;;;;;6.83;2.87;;;;;;;15.64;24.88;97643.72;8249559;28;20241;-69
2021/04/09 17:20:41;;;;;;;5.63;2.70;;;;;;;15.62;25.33;97637.78;8254086;28;20241;-69
2021/04/09 17:24:43;;;;;;;9.47;2.77;;;;;;;15.48;25.42;97626.63;8254027;28;20224;-70
2021/04/09 17:28:45;;;;;;;5.10;2.80;;;;;;;15.46;25.68;97626.75;8249171;28;20264;-69
2021/04/09 17:32:47;;;;;;;5.63;2.83;;;;;;;15.37;26.25;97627.41;8251990;28;20202;-69
2021/04/09 17:36:50;;;;;;;5.17;2.83;;;;;;;15.21;26.29;97618.03;8254261;28;20210;-69
2021/04/09 17:40:53;;;;;;;6.47;3.00;;;;;;;15.20;26.46;97625.94;8267675;28;20206;-69
2021/04/09 17:44:57;;;;;;;6.50;3.20;;;;;;;15.16;26.89;97625.31;8267673;28;20292;-69
2021/04/09 17:49:00;;;;;;;6.93;4.20;;;;;;;15.04;27.32;97621.78;8266655;28;20226;-69
2021/04/09 17:53:02;;;;;;;11.63;6.40;;;;;;;15.03;27.73;97621.88;8265625;28;20209;-69
2021/04/09 17:57:04;;;;;;;11.00;4.90;;;;;;;14.90;27.92;97621.88;8253205;28;20213;-70
2021/04/09 18:01:07;;;;;;;7.57;4.47;;;;;;;14.93;28.51;97633.88;8248345;28;20618;-69
2021/04/09 18:05:10;;;;;;;8.20;4.10;;;;;;;14.64;27.71;97627.06;8256586;28;20206;-69
2021/04/09 18:09:12;;;;;;;10.57;4.80;;;;;;;14.66;27.90;97635.59;8258450;28;20654;-69
2021/04/09 18:13:14;;;;;;;8.43;5.00;;;;;;;14.62;27.99;97635.91;8250911;28;20669;-69
2021/04/09 18:17:16;;;;;;;9.90;4.83;;;;;;;14.69;28.51;97637.16;8237032;28;20243;-69
2021/04/09 18:21:20;;;;;;;7.43;4.70;;;;;;;14.56;29.32;97639.72;8234115;28;20642;-69
2021/04/09 18:25:39;;;;;;;7.50;5.07;;;;;;;14.41;29.71;97641.56;8233800;28;20597;-69
2021/04/09 18:29:41;;;;;;;9.40;5.40;;;;;;;14.39;30.24;97647.78;8232289;28;20302;-69
2021/04/09 18:33:43;;;;;;;9.83;5.20;;;;;;;14.30;31.10;97649.25;8242550;28;20545;-69
2021/04/09 18:37:46;;;;;;;13.07;4.77;;;;;;;14.22;31.19;97638.47;8264944;28;20202;-69
2021/04/09 18:41:48;;;;;;;10.57;6.33;;;;;;;14.15;30.78;97648.44;8264989;28;20208;-69
2021/04/09 18:45:49;;;;;;;13.17;9.13;;;;;;;14.11;30.82;97651.34;8265235;28;20704;-69
2021/04/09 18:49:51;;;;;;;13.00;8.00;;;;;;;14.00;31.51;97654.63;8265026;28;20256;-69
2021/04/09 18:53:54;;;;;;;8.80;6.40;;;;;;;13.92;31.36;97654.25;8265266;28;20215;-69
2021/04/09 18:57:56;;;;;;;7.57;5.30;;;;;;;13.88;32.56;97656.25;8264718;28;20221;-69
2021/04/09 19:01:59;;;;;;;8.63;4.70;;;;;;;13.81;32.89;97647.16;8263249;28;20291;-69